createdAt,value
2023-03-22T00:02:06.966Z,99434.56
2023-03-22T00:04:36.497Z,99440.31
2023-03-22T00:07:04.906Z,99442.84
2023-03-22T00:09:32.889Z,99440.38
2023-03-22T00:12:00.648Z,99439.28
2023-03-22T00:14:34.034Z,99435.75
2023-03-22T00:17:01.423Z,99432.50
2023-03-22T00:19:34.283Z,99425.19
2023-03-22T00:22:03.944Z,99431.56
2023-03-22T00:24:31.423Z,99431.75
2023-03-22T00:26:59.117Z,99431.59
2023-03-22T00:29:27.515Z,99425.88
2023-03-22T00:31:56.591Z,99430.91
2023-03-22T00:34:23.840Z,99422.91
2023-03-22T00:36:52.234Z,99416.72
2023-03-22T00:39:19.472Z,99415.19
2023-03-22T00:41:46.777Z,99418.66
2023-03-22T00:44:14.185Z,99406.16
2023-03-22T00:46:41.663Z,99412.63
2023-03-22T00:49:09.170Z,99400.91
2023-03-22T00:51:36.579Z,99406.59
2023-03-22T00:54:04.014Z,99403.19
2023-03-22T00:56:34.267Z,99403.06
2023-03-22T00:59:04.542Z,99400.75
2023-03-22T01:01:32.583Z,99400.06
2023-03-22T01:04:00.126Z,99407.91
2023-03-22T01:06:29.527Z,99397.44
2023-03-22T01:08:57.596Z,99395.09
2023-03-22T01:11:26.291Z,99391.66
2023-03-22T01:13:55.203Z,99387.69
2023-03-22T01:16:22.482Z,99384.47
2023-03-22T01:18:50.897Z,99382.25
2023-03-22T01:21:18.370Z,99373.91
2023-03-22T01:23:46.034Z,99377.59
2023-03-22T01:26:14.235Z,99366.00
2023-03-22T01:28:41.874Z,99363.63
2023-03-22T01:31:10.291Z,99367.63
2023-03-22T01:33:38.011Z,99362.59
2023-03-22T01:36:06.033Z,99353.53
2023-03-22T01:38:33.159Z,99359.13
2023-03-22T01:41:06.939Z,99352.88
2023-03-22T01:43:35.195Z,99341.97
2023-03-22T01:46:02.766Z,99353.19
2023-03-22T01:48:46.460Z,99340.13
2023-03-22T01:51:28.008Z,99340.69
2023-03-22T01:54:05.919Z,99348.53
2023-03-22T01:56:36.935Z,99338.69
2023-03-22T01:59:05.848Z,99342.13
2023-03-22T02:01:35.063Z,99342.97
2023-03-22T02:04:10.324Z,99336.69
2023-03-22T02:06:39.508Z,99335.84
2023-03-22T02:09:13.229Z,99331.59
2023-03-22T02:11:52.605Z,99327.00
2023-03-22T02:14:28.556Z,99320.50
2023-03-22T02:17:13.412Z,99332.22
2023-03-22T02:20:13.909Z,99323.34
2023-03-22T02:23:00.665Z,99323.44
2023-03-22T02:25:46.769Z,99325.56
2023-03-22T02:28:24.786Z,99335.34
2023-03-22T02:31:12.697Z,99323.53
2023-03-22T02:34:14.904Z,99322.97
2023-03-22T02:37:05.046Z,99322.09
2023-03-22T02:39:38.844Z,99312.63
2023-03-22T02:42:20.186Z,99306.50
2023-03-22T02:45:13.606Z,99308.38
2023-03-22T02:48:12.094Z,99309.38
2023-03-22T02:50:50.266Z,99295.50
2023-03-22T02:53:23.142Z,99295.63
2023-03-22T02:56:11.950Z,99293.78
2023-03-22T02:58:48.638Z,99292.06
2023-03-22T03:01:29.509Z,99295.56
2023-03-22T03:04:01.793Z,99293.66
2023-03-22T03:06:33.907Z,99302.75
2023-03-22T03:09:05.327Z,99305.97
2023-03-22T03:11:33.315Z,99304.19
2023-03-22T03:14:00.782Z,99307.75
2023-03-22T03:16:31.318Z,99304.53
2023-03-22T03:19:09.463Z,99299.13
2023-03-22T03:21:59.185Z,99304.31
2023-03-22T03:24:56.805Z,99301.19
2023-03-22T03:27:41.290Z,99302.03
2023-03-22T03:30:39.279Z,99297.97
2023-03-22T03:33:13.856Z,99302.47
2023-03-22T03:35:48.766Z,99298.19
2023-03-22T03:38:20.726Z,99296.72
2023-03-22T03:40:52.333Z,99289.53
2023-03-22T03:43:21.630Z,99283.69
2023-03-22T03:45:49.141Z,99296.69
2023-03-22T03:48:21.537Z,99294.84
2023-03-22T03:50:52.354Z,99297.44
2023-03-22T03:53:19.700Z,99307.41
2023-03-22T03:55:47.153Z,99298.22
2023-03-22T03:58:16.440Z,99296.78
2023-03-22T04:00:46.728Z,99298.28
2023-03-22T04:03:15.101Z,99304.50
2023-03-22T04:05:42.581Z,99294.03
2023-03-22T04:08:10.080Z,99295.75
2023-03-22T04:10:38.811Z,99295.06
2023-03-22T04:13:06.586Z,99287.97
2023-03-22T04:15:33.892Z,99291.59
2023-03-22T04:18:01.429Z,99284.84
2023-03-22T04:20:30.131Z,99287.28
2023-03-22T04:22:58.444Z,99293.34
2023-03-22T04:25:30.808Z,99295.06
2023-03-22T04:27:58.156Z,99292.47
2023-03-22T04:30:27.775Z,99298.66
2023-03-22T04:32:55.241Z,99296.88
2023-03-22T04:35:22.916Z,99298.50
2023-03-22T04:37:50.034Z,99295.06
2023-03-22T04:40:17.444Z,99298.63
2023-03-22T04:42:50.711Z,99297.72
2023-03-22T04:45:29.408Z,99300.53
2023-03-22T04:47:56.783Z,99302.91
2023-03-22T04:50:25.317Z,99306.38
2023-03-22T04:52:53.632Z,99320.28
2023-03-22T04:55:22.137Z,99311.44
2023-03-22T04:57:49.564Z,99322.66
2023-03-22T05:00:17.601Z,99329.53
2023-03-22T05:02:45.074Z,99324.34
2023-03-22T05:05:12.376Z,99328.00
2023-03-22T05:07:39.903Z,99327.94
2023-03-22T05:10:08.128Z,99318.41
2023-03-22T05:12:37.448Z,99326.81
2023-03-22T05:15:06.883Z,99321.38
2023-03-22T05:17:34.365Z,99323.91
2023-03-22T05:20:09.404Z,99324.50
2023-03-22T05:22:40.838Z,99329.91
2023-03-22T05:25:11.818Z,99329.63
2023-03-22T05:27:39.298Z,99328.53
2023-03-22T05:30:07.579Z,99329.22
2023-03-22T05:32:37.793Z,99332.66
2023-03-22T05:35:05.597Z,99337.75
2023-03-22T05:37:32.707Z,99336.22
2023-03-22T05:39:59.894Z,99340.31
2023-03-22T05:42:27.084Z,99329.22
2023-03-22T05:45:02.042Z,99320.09
2023-03-22T05:47:30.614Z,99325.63
2023-03-22T05:49:57.841Z,99325.69
2023-03-22T05:52:25.349Z,99316.88
2023-03-22T05:54:52.775Z,99315.91
2023-03-22T05:57:19.881Z,99318.38
2023-03-22T05:59:47.150Z,99315.91
2023-03-22T06:02:14.250Z,99328.06
2023-03-22T06:04:56.010Z,99332.25
2023-03-22T06:07:23.402Z,99328.91
2023-03-22T06:09:50.978Z,99336.66
2023-03-22T06:12:18.913Z,99328.59
2023-03-22T06:14:46.415Z,99330.28
2023-03-22T06:17:13.770Z,99329.44
2023-03-22T06:19:41.290Z,99323.22
2023-03-22T06:22:08.874Z,99326.53
2023-03-22T06:24:36.682Z,99331.59
2023-03-22T06:27:04.089Z,99332.19
2023-03-22T06:29:31.650Z,99329.88
2023-03-22T06:32:01.857Z,99337.47
2023-03-22T06:34:29.302Z,99328.47
2023-03-22T06:37:03.829Z,99330.13
2023-03-22T06:39:31.422Z,99338.81
2023-03-22T06:42:00.535Z,99329.88
2023-03-22T06:44:27.859Z,99336.75
2023-03-22T06:46:57.006Z,99325.78
2023-03-22T06:49:24.474Z,99332.78
2023-03-22T06:51:51.902Z,99324.69
2023-03-22T06:54:20.200Z,99327.63
2023-03-22T06:56:48.416Z,99329.00
2023-03-22T06:59:15.521Z,99325.22
2023-03-22T07:01:42.950Z,99324.09
2023-03-22T07:04:10.332Z,99326.94
2023-03-22T07:06:37.737Z,99323.66
2023-03-22T07:09:05.273Z,99328.09
2023-03-22T07:11:32.873Z,99327.28
2023-03-22T07:14:01.770Z,99328.50
2023-03-22T07:16:29.062Z,99332.50
2023-03-22T07:18:57.425Z,99329.47
2023-03-22T07:21:24.600Z,99326.69
2023-03-22T07:23:51.891Z,99337.09
2023-03-22T07:26:19.400Z,99332.22
2023-03-22T07:28:47.069Z,99326.19
2023-03-22T07:31:14.587Z,99313.31
2023-03-22T07:33:42.030Z,99316.31
2023-03-22T07:36:11.888Z,99320.53
2023-03-22T07:38:40.713Z,99326.03
2023-03-22T07:41:08.351Z,99327.63
2023-03-22T07:43:50.814Z,99330.47
2023-03-22T07:46:23.366Z,99314.28
2023-03-22T07:48:50.799Z,99320.91
2023-03-22T07:51:19.802Z,99318.59
2023-03-22T07:53:47.412Z,99313.69
2023-03-22T07:56:14.665Z,99318.13
2023-03-22T07:58:42.077Z,99316.81
2023-03-22T08:01:09.666Z,99317.50
2023-03-22T08:03:38.198Z,99318.63
2023-03-22T08:06:08.323Z,99313.00
2023-03-22T08:08:37.189Z,99316.13
2023-03-22T08:11:07.982Z,99314.41
2023-03-22T08:13:36.058Z,99314.59
2023-03-22T08:16:03.563Z,99317.97
2023-03-22T08:18:32.948Z,99306.59
2023-03-22T08:21:00.704Z,99305.13
2023-03-22T08:23:41.754Z,99298.84
2023-03-22T08:26:11.372Z,99299.69
2023-03-22T08:28:38.671Z,99291.41
2023-03-22T08:31:17.347Z,99289.59
2023-03-22T08:33:45.250Z,99290.28
2023-03-22T08:36:19.259Z,99293.13
2023-03-22T08:38:46.458Z,99292.97
2023-03-22T08:41:14.173Z,99288.25
2023-03-22T08:43:43.336Z,99285.72
2023-03-22T08:46:10.860Z,99290.47
2023-03-22T08:48:38.808Z,99285.94
2023-03-22T08:51:06.954Z,99279.31
2023-03-22T08:53:34.207Z,99286.28
2023-03-22T08:56:02.477Z,99286.75
2023-03-22T08:58:29.639Z,99284.94
2023-03-22T09:00:57.115Z,99283.28
2023-03-22T09:03:25.237Z,99285.88
2023-03-22T09:05:58.127Z,99282.84
2023-03-22T09:08:26.363Z,99285.22
2023-03-22T09:10:54.530Z,99286.53
2023-03-22T09:13:28.756Z,99272.34
2023-03-22T09:15:56.978Z,99276.44
2023-03-22T09:18:25.080Z,99269.09
2023-03-22T09:20:53.726Z,99268.25
2023-03-22T09:23:23.053Z,99272.13
2023-03-22T09:25:51.489Z,99271.56
2023-03-22T09:28:19.401Z,99265.91
2023-03-22T09:30:46.632Z,99268.59
2023-03-22T09:33:16.147Z,99267.28
2023-03-22T09:35:43.946Z,99273.03
2023-03-22T09:38:12.488Z,99261.00
2023-03-22T09:40:51.210Z,99268.25
2023-03-22T09:43:19.906Z,99263.97
2023-03-22T09:45:50.721Z,99261.88
2023-03-22T09:48:18.050Z,99259.72
2023-03-22T09:50:49.078Z,99255.81
2023-03-22T09:53:17.850Z,99258.25
2023-03-22T09:55:51.867Z,99258.75
2023-03-22T09:58:42.392Z,99259.06
2023-03-22T10:01:32.050Z,99251.13
2023-03-22T10:04:32.696Z,99253.69
2023-03-22T10:07:27.628Z,99246.38
2023-03-22T10:10:13.263Z,99252.88
2023-03-22T10:13:07.958Z,99242.84
2023-03-22T10:15:42.191Z,99249.66
2023-03-22T10:18:18.469Z,99243.34
2023-03-22T10:21:05.243Z,99237.97
2023-03-22T10:23:35.538Z,99243.81
2023-03-22T10:26:04.869Z,99248.34
2023-03-22T10:28:39.613Z,99238.00
2023-03-22T10:31:13.340Z,99236.91
2023-03-22T10:33:50.538Z,99240.97
2023-03-22T10:36:22.652Z,99235.63
2023-03-22T10:38:54.953Z,99232.22
2023-03-22T10:41:26.053Z,99224.97
2023-03-22T10:43:57.726Z,99219.78
2023-03-22T10:46:31.975Z,99226.25
2023-03-22T10:49:01.169Z,99214.13
2023-03-22T10:51:52.007Z,99217.91
2023-03-22T10:54:21.793Z,99211.56
2023-03-22T10:56:50.228Z,99214.91
2023-03-22T10:59:42.724Z,99216.47
2023-03-22T11:02:23.077Z,99209.75
2023-03-22T11:04:56.841Z,99211.06
2023-03-22T11:07:44.478Z,99203.94
2023-03-22T11:10:34.638Z,99202.69
2023-03-22T11:13:10.015Z,99203.00
2023-03-22T11:15:49.806Z,99197.56
2023-03-22T11:18:19.154Z,99199.47
2023-03-22T11:21:08.510Z,99196.16
2023-03-22T11:23:38.889Z,99188.72
2023-03-22T11:26:15.051Z,99185.38
2023-03-22T11:28:47.429Z,99179.97
2023-03-22T11:31:18.886Z,99176.47
2023-03-22T11:33:57.017Z,99169.13
2023-03-22T11:36:24.931Z,99179.91
2023-03-22T11:39:01.063Z,99170.34
2023-03-22T11:41:37.063Z,99193.63
2023-03-22T11:44:14.575Z,99178.41
2023-03-22T11:46:51.187Z,99172.13
2023-03-22T11:49:19.209Z,99170.06
2023-03-22T11:51:46.854Z,99159.09
2023-03-22T11:54:17.129Z,99166.78
2023-03-22T11:56:47.673Z,99164.34
2023-03-22T11:59:44.383Z,99159.72
2023-03-22T12:02:16.924Z,99160.59
2023-03-22T12:04:47.426Z,99145.50
2023-03-22T12:07:25.070Z,99160.31
2023-03-22T12:10:03.790Z,99158.53
2023-03-22T12:12:39.131Z,99156.63
2023-03-22T12:15:21.551Z,99155.69
2023-03-22T12:18:16.781Z,99144.59
2023-03-22T12:20:53.818Z,99141.38
2023-03-22T12:23:26.883Z,99138.63
2023-03-22T12:26:12.267Z,99137.94
2023-03-22T12:29:15.386Z,99130.09
2023-03-22T12:32:10.047Z,99129.28
2023-03-22T12:34:45.951Z,99123.41
2023-03-22T12:37:19.751Z,99125.25
2023-03-22T12:39:50.984Z,99109.69
2023-03-22T12:42:27.409Z,99110.25
2023-03-22T12:45:10.899Z,99117.91
2023-03-22T12:47:52.740Z,99109.94
2023-03-22T12:50:56.568Z,99108.13
2023-03-22T12:53:28.506Z,99104.47
2023-03-22T12:55:59.065Z,99097.84
2023-03-22T12:58:27.153Z,99103.84
2023-03-22T13:01:07.918Z,99105.50
2023-03-22T13:03:44.605Z,99096.25
2023-03-22T13:06:31.352Z,99100.47
2023-03-22T13:09:19.059Z,99100.28
2023-03-22T13:12:19.565Z,99101.56
2023-03-22T13:14:58.249Z,99101.69
2023-03-22T13:17:27.831Z,99096.22
2023-03-22T13:20:21.849Z,99089.38
2023-03-22T13:22:49.081Z,99083.28
2023-03-22T13:25:19.966Z,99081.84
2023-03-22T13:28:27.003Z,99081.19
2023-03-22T13:30:57.583Z,99084.19
2023-03-22T13:33:32.195Z,99082.41
2023-03-22T13:36:01.522Z,99078.03
2023-03-22T13:38:35.372Z,99072.25
2023-03-22T13:41:28.343Z,99064.06
2023-03-22T13:43:57.689Z,99064.28
2023-03-22T13:46:45.953Z,99066.22
2023-03-22T13:49:23.842Z,99063.38
2023-03-22T13:51:53.053Z,99065.44
2023-03-22T13:54:30.360Z,99066.31
2023-03-22T13:57:03.437Z,99058.50
2023-03-22T14:00:12.198Z,99065.38
2023-03-22T14:02:43.129Z,99057.81
2023-03-22T14:05:16.881Z,99059.78
2023-03-22T14:07:52.627Z,99051.50
2023-03-22T14:10:29.301Z,99050.72
2023-03-22T14:13:19.706Z,99049.66
2023-03-22T14:16:10.162Z,99052.97
2023-03-22T14:18:43.211Z,99050.66
2023-03-22T14:21:17.875Z,99047.28
